Time;durP1;ratioP1;P1;durP2;ratioP2;P2;SDS_P1;SDS_P2;PMS_P1;PMS_P2;Temp;Humidity;BMP_temperature;BMP_pressure;BME280_temperature;BME280_humidity;BME280_pressure;Samples;Min_cycle;Max_cycle;Signal;HPM_P1;HPM_P2
2023/07/13 00:01:17;;;;;;;0.10;0.10;;;;;;;18.92;100.00;98915.50;4932143;29;20713;-81
2023/07/13 00:03:46;;;;;;;0.10;0.10;;;;;;;18.94;100.00;98916.19;4931864;28;20309;-81
2023/07/13 00:06:14;;;;;;;0.10;0.10;;;;;;;18.99;100.00;98913.84;4927078;29;20201;-80
2023/07/13 00:08:44;;;;;;;0.10;0.10;;;;;;;19.08;100.00;98915.59;4922259;29;20186;-82
2023/07/13 00:11:12;;;;;;;0.10;0.10;;;;;;;19.14;100.00;98906.91;4929281;29;20212;-81
2023/07/13 00:13:42;;;;;;;0.10;0.10;;;;;;;19.22;100.00;98910.66;4927955;29;20204;-81
2023/07/13 00:16:13;;;;;;;0.10;0.10;;;;;;;19.14;100.00;98906.06;4926972;29;20211;-80
2023/07/13 00:18:42;;;;;;;0.10;0.10;;;;;;;18.86;100.00;98903.53;4948376;29;20201;-80
2023/07/13 00:21:12;;;;;;;0.10;0.10;;;;;;;18.89;100.00;98910.41;4950158;28;20684;-81
2023/07/13 00:23:43;;;;;;;0.10;0.10;;;;;;;18.77;100.00;98917.91;4950233;29;20308;-80
2023/07/13 00:26:13;;;;;;;0.10;0.10;;;;;;;18.73;100.00;98919.22;4949851;29;20215;-80
2023/07/13 00:28:42;;;;;;;0.10;0.10;;;;;;;18.60;100.00;98910.66;4946114;29;20181;-80
2023/07/13 00:31:15;;;;;;;0.10;0.10;;;;;;;18.58;100.00;98921.56;4948439;29;20181;-81
2023/07/13 00:33:43;;;;;;;0.10;0.10;;;;;;;18.75;100.00;98919.06;4952420;28;20177;-80
2023/07/13 00:36:13;;;;;;;0.10;0.10;;;;;;;18.68;100.00;98921.50;4947548;29;20200;-81
2023/07/13 00:38:43;;;;;;;0.10;0.10;;;;;;;18.51;100.00;98925.84;4929305;29;20284;-80
2023/07/13 00:41:12;;;;;;;0.20;0.20;;;;;;;18.40;100.00;98928.78;4925132;29;20197;-81
2023/07/13 00:43:42;;;;;;;0.10;0.10;;;;;;;18.60;100.00;98930.28;4930499;29;20252;-80
2023/07/13 00:46:25;;;;;;;0.10;0.10;;;;;;;18.62;100.00;98931.97;4929826;28;20217;-80
2023/07/13 00:48:55;;;;;;;0.10;0.10;;;;;;;18.56;100.00;98931.63;4929027;29;20224;-80
2023/07/13 00:51:29;;;;;;;0.10;0.10;;;;;;;18.70;100.00;98930.25;4927023;29;20201;-81
2023/07/13 00:54:00;;;;;;;0.10;0.10;;;;;;;18.60;100.00;98943.72;4932588;29;20193;-81
2023/07/13 00:56:32;;;;;;;0.10;0.10;;;;;;;18.53;100.00;98942.66;4939527;29;20259;-81
2023/07/13 00:59:04;;;;;;;0.10;0.10;;;;;;;18.55;100.00;98935.28;4955851;29;20185;-80
2023/07/13 01:01:36;;;;;;;0.10;0.10;;;;;;;18.64;100.00;98943.41;4951333;29;20200;-81
2023/07/13 01:04:07;;;;;;;0.10;0.10;;;;;;;18.66;100.00;98947.66;4952054;29;20183;-80
2023/07/13 01:06:36;;;;;;;0.10;0.10;;;;;;;18.31;100.00;98952.00;4951538;29;20205;-80
2023/07/13 01:09:09;;;;;;;0.10;0.10;;;;;;;18.51;100.00;98955.38;4955643;29;20208;-80
2023/07/13 01:11:38;;;;;;;0.10;0.10;;;;;;;18.54;100.00;98949.72;4955767;29;20204;-80
2023/07/13 01:14:06;;;;;;;0.10;0.10;;;;;;;18.59;100.00;98955.44;4931820;29;20728;-80
2023/07/13 01:16:38;;;;;;;0.10;0.10;;;;;;;18.57;100.00;98959.28;4930047;29;20212;-80
2023/07/13 01:19:15;;;;;;;0.10;0.10;;;;;;;18.59;100.00;98960.81;4931391;29;20197;-80
2023/07/13 01:21:51;;;;;;;0.10;0.10;;;;;;;18.62;100.00;98958.81;4953398;29;20192;-79
2023/07/13 01:24:26;;;;;;;0.20;0.20;;;;;;;18.39;100.00;98966.47;4941466;29;20344;-81
2023/07/13 01:26:55;;;;;;;0.10;0.10;;;;;;;18.45;100.00;98960.53;4898953;29;20299;-81
2023/07/13 01:29:23;;;;;;;0.10;0.10;;;;;;;18.47;100.00;98947.78;4928462;29;20201;-80
2023/07/13 01:31:51;;;;;;;0.20;0.20;;;;;;;18.60;100.00;98946.41;4929903;29;20275;-81
2023/07/13 01:34:20;;;;;;;0.10;0.10;;;;;;;18.45;100.00;98952.47;4951822;28;20189;-80
2023/07/13 01:36:53;;;;;;;0.10;0.10;;;;;;;18.41;100.00;98951.91;4953698;28;20207;-81
2023/07/13 01:39:22;;;;;;;0.10;0.10;;;;;;;18.37;100.00;98947.03;4955064;28;20268;-81
2023/07/13 01:41:51;;;;;;;0.10;0.10;;;;;;;18.47;100.00;98940.59;4953132;29;20211;-81
2023/07/13 01:44:24;;;;;;;0.13;0.13;;;;;;;18.65;100.00;98945.13;4954813;29;20181;-81
2023/07/13 01:46:52;;;;;;;0.10;0.10;;;;;;;18.55;100.00;98939.81;4912449;29;20229;-81
2023/07/13 01:49:21;;;;;;;0.10;0.10;;;;;;;18.61;100.00;98947.22;4905290;29;20268;-81
2023/07/13 01:51:53;;;;;;;0.10;0.10;;;;;;;18.57;100.00;98938.66;4913303;29;20234;-81
2023/07/13 01:54:21;;;;;;;0.10;0.10;;;;;;;18.68;100.00;98934.09;4914993;29;20655;-81
2023/07/13 01:56:52;;;;;;;0.10;0.10;;;;;;;18.57;100.00;98940.50;4908566;29;20205;-81
2023/07/13 01:59:20;;;;;;;0.10;0.10;;;;;;;18.69;100.00;98941.13;4907385;29;20206;-81
2023/07/13 02:01:49;;;;;;;0.10;0.10;;;;;;;18.66;100.00;98942.28;4911075;29;20202;-80
2023/07/13 02:04:17;;;;;;;0.10;0.10;;;;;;;18.76;100.00;98943.03;4906995;29;20208;-81
2023/07/13 02:06:46;;;;;;;0.10;0.10;;;;;;;18.65;100.00;98945.97;4951230;29;20209;-81
2023/07/13 02:09:16;;;;;;;0.20;0.20;;;;;;;18.67;100.00;98940.44;4954856;28;20311;-80
2023/07/13 02:11:45;;;;;;;0.10;0.10;;;;;;;18.70;100.00;98942.81;4952298;28;20183;-80
2023/07/13 02:14:15;;;;;;;0.10;0.10;;;;;;;18.70;100.00;98948.19;4951317;29;20199;-81
2023/07/13 02:16:44;;;;;;;0.10;0.10;;;;;;;18.73;100.00;98955.94;4936635;29;20223;-81
2023/07/13 02:19:13;;;;;;;0.10;0.10;;;;;;;18.50;100.00;98955.53;4960847;28;20196;-81
2023/07/13 02:21:41;;;;;;;0.10;0.10;;;;;;;18.49;100.00;98949.31;4951043;29;20185;-80
2023/07/13 02:24:17;;;;;;;0.10;0.10;;;;;;;18.48;100.00;98949.47;4953274;29;20232;-81
2023/07/13 02:26:47;;;;;;;0.10;0.10;;;;;;;18.48;100.00;98954.84;4949571;29;20235;-81
2023/07/13 02:29:18;;;;;;;0.10;0.10;;;;;;;18.38;100.00;98952.22;4922814;28;20759;-80
2023/07/13 02:31:50;;;;;;;0.10;0.10;;;;;;;18.20;100.00;98954.06;4948519;29;20235;-81
2023/07/13 02:34:21;;;;;;;0.10;0.10;;;;;;;18.19;100.00;98955.88;4953317;29;20204;-81
2023/07/13 02:36:49;;;;;;;0.10;0.10;;;;;;;18.07;100.00;98956.25;4949972;29;20186;-81
2023/07/13 02:39:18;;;;;;;0.10;0.10;;;;;;;17.98;100.00;98952.66;4950120;29;20282;-81
2023/07/13 02:41:50;;;;;;;0.10;0.10;;;;;;;17.83;100.00;98946.94;4956320;28;20645;-81
2023/07/13 02:44:18;;;;;;;0.10;0.10;;;;;;;17.73;100.00;98948.81;4948470;29;20209;-81
2023/07/13 02:46:49;;;;;;;0.10;0.10;;;;;;;17.89;100.00;98950.88;4952706;29;20224;-80
2023/07/13 02:49:19;;;;;;;0.10;0.10;;;;;;;17.77;100.00;98947.56;4948737;29;20177;-81
2023/07/13 02:51:48;;;;;;;0.10;0.10;;;;;;;17.88;100.00;98952.72;4953978;28;20229;-81
2023/07/13 02:54:17;;;;;;;0.10;0.10;;;;;;;18.02;100.00;98956.69;4949110;29;20196;-80
2023/07/13 02:56:45;;;;;;;0.10;0.10;;;;;;;17.97;100.00;98964.38;4953802;29;20183;-81
2023/07/13 02:59:15;;;;;;;0.10;0.10;;;;;;;17.95;100.00;98956.47;4944923;29;20208;-81
2023/07/13 03:01:44;;;;;;;0.10;0.10;;;;;;;17.83;100.00;98970.22;4956749;28;20181;-81
2023/07/13 03:04:12;;;;;;;0.10;0.10;;;;;;;17.74;100.00;98964.75;4930144;29;20204;-81
2023/07/13 03:06:41;;;;;;;0.17;0.17;;;;;;;17.52;100.00;98949.03;4949545;29;20270;-81
2023/07/13 03:09:09;;;;;;;0.10;0.10;;;;;;;17.57;100.00;98960.16;4947158;29;20177;-81
2023/07/13 03:11:38;;;;;;;0.10;0.10;;;;;;;17.60;100.00;98956.34;4952563;28;20193;-81
2023/07/13 03:14:06;;;;;;;0.10;0.10;;;;;;;17.47;100.00;98964.72;4952043;28;20220;-81
2023/07/13 03:16:36;;;;;;;0.10;0.10;;;;;;;17.54;100.00;98968.47;4947815;29;20263;-80
2023/07/13 03:19:06;;;;;;;0.10;0.10;;;;;;;17.62;100.00;98973.09;4952734;29;20280;-81
2023/07/13 03:21:34;;;;;;;0.10;0.10;;;;;;;17.51;100.00;98970.59;5007485;28;20194;-81
2023/07/13 03:24:03;;;;;;;0.10;0.10;;;;;;;17.68;100.00;98970.69;5010336;28;20195;-81
2023/07/13 03:26:31;;;;;;;0.10;0.10;;;;;;;17.70;100.00;98974.09;5008907;28;20301;-80
2023/07/13 03:29:00;;;;;;;0.10;0.10;;;;;;;17.70;100.00;98979.44;5010203;28;20226;-80
2023/07/13 03:31:37;;;;;;;0.10;0.10;;;;;;;17.57;100.00;98983.44;5004359;28;20199;-80
2023/07/13 03:34:06;;;;;;;0.10;0.10;;;;;;;17.46;100.00;98981.75;5004825;28;20276;-81
2023/07/13 03:36:34;;;;;;;0.10;0.10;;;;;;;17.51;100.00;98984.00;5009115;28;20289;-80
2023/07/13 03:39:08;;;;;;;0.10;0.10;;;;;;;17.60;100.00;98993.84;4995331;28;20224;-81
2023/07/13 03:41:37;;;;;;;0.10;0.10;;;;;;;17.61;100.00;98991.00;4949620;28;20657;-81
2023/07/13 03:44:06;;;;;;;0.10;0.10;;;;;;;17.80;100.00;99000.00;4957811;28;20188;-81
2023/07/13 03:46:36;;;;;;;0.13;0.13;;;;;;;17.69;100.00;99001.00;4954701;28;20209;-80
2023/07/13 03:49:05;;;;;;;0.10;0.10;;;;;;;17.80;100.00;99008.03;4951085;29;20243;-80
2023/07/13 03:51:36;;;;;;;0.10;0.10;;;;;;;17.88;100.00;99000.09;4948286;29;20191;-81
2023/07/13 03:54:06;;;;;;;0.10;0.10;;;;;;;17.78;100.00;99002.81;4924735;29;20217;-80
2023/07/13 03:56:35;;;;;;;0.10;0.10;;;;;;;17.81;100.00;99013.22;4929307;29;20316;-80
2023/07/13 03:59:07;;;;;;;0.10;0.10;;;;;;;17.60;100.00;99005.38;4923831;29;20211;-80
2023/07/13 04:01:37;;;;;;;0.10;0.10;;;;;;;17.50;100.00;99012.63;4925570;29;20288;-80
2023/07/13 04:04:08;;;;;;;0.10;0.10;;;;;;;17.34;100.00;99013.22;4927274;29;20209;-80
2023/07/13 04:06:37;;;;;;;0.10;0.10;;;;;;;17.34;100.00;99021.25;4924215;29;20712;-81
2023/07/13 04:09:06;;;;;;;0.10;0.10;;;;;;;17.12;100.00;99005.53;4930358;28;20204;-80
2023/07/13 04:11:36;;;;;;;0.10;0.10;;;;;;;17.06;100.00;99014.09;4933375;29;20188;-81
2023/07/13 04:14:05;;;;;;;0.10;0.10;;;;;;;16.97;100.00;99023.00;4956747;28;20188;-81
2023/07/13 04:16:37;;;;;;;0.10;0.10;;;;;;;16.69;100.00;99022.00;4952625;28;20224;-80
2023/07/13 04:19:05;;;;;;;0.10;0.10;;;;;;;16.67;100.00;99016.75;4943967;29;20200;-80
2023/07/13 04:21:34;;;;;;;0.10;0.10;;;;;;;16.59;100.00;99017.47;4949495;28;20215;-80
2023/07/13 04:24:02;;;;;;;0.10;0.10;;;;;;;16.48;100.00;99012.25;4948672;28;20205;-80
2023/07/13 04:26:31;;;;;;;0.10;0.10;;;;;;;16.50;100.00;99026.34;4948229;29;20238;-81
2023/07/13 04:29:00;;;;;;;0.10;0.10;;;;;;;16.70;100.00;99016.53;4957472;28;20394;-81
2023/07/13 04:31:28;;;;;;;0.10;0.10;;;;;;;16.70;100.00;99021.03;4950410;29;20223;-80
2023/07/13 04:33:58;;;;;;;0.10;0.10;;;;;;;16.77;100.00;99016.78;4943222;29;20181;-81
2023/07/13 04:36:27;;;;;;;0.10;0.10;;;;;;;16.82;100.00;99020.75;4952497;29;20272;-80
2023/07/13 04:38:56;;;;;;;0.10;0.10;;;;;;;16.64;100.00;99022.41;4949338;29;20232;-81
2023/07/13 04:41:25;;;;;;;0.10;0.10;;;;;;;16.89;100.00;99018.38;4935239;29;20193;-80
2023/07/13 04:43:53;;;;;;;0.10;0.10;;;;;;;16.81;100.00;99021.75;4948901;29;20192;-81
2023/07/13 04:46:24;;;;;;;0.10;0.10;;;;;;;16.98;100.00;99017.50;4951058;28;20207;-81
2023/07/13 04:48:53;;;;;;;0.10;0.10;;;;;;;16.98;100.00;99016.66;4927939;29;20243;-81
2023/07/13 04:51:23;;;;;;;0.10;0.10;;;;;;;17.05;100.00;99021.28;4952829;29;20220;-81
2023/07/13 04:53:52;;;;;;;0.10;0.10;;;;;;;17.29;100.00;99022.69;4949138;28;20815;-80
2023/07/13 04:56:28;;;;;;;0.10;0.10;;;;;;;17.46;100.00;99020.06;4947149;28;20204;-81
2023/07/13 04:58:58;;;;;;;0.10;0.10;;;;;;;17.38;100.00;99025.34;4946983;29;20235;-80
2023/07/13 05:01:27;;;;;;;0.10;0.10;;;;;;;17.04;100.00;99022.28;4945838;28;20201;-80
2023/07/13 05:03:57;;;;;;;0.20;0.20;;;;;;;17.06;100.00;99022.13;4950184;28;20236;-80
2023/07/13 05:06:28;;;;;;;0.10;0.10;;;;;;;17.38;100.00;99019.13;4895540;29;20208;-80
2023/07/13 05:09:00;;;;;;;0.10;0.10;;;;;;;17.58;100.00;99022.59;4820919;29;20240;-81
2023/07/13 05:11:29;;;;;;;0.10;0.10;;;;;;;17.66;100.00;99020.00;4821951;29;20208;-81
2023/07/13 05:13:58;;;;;;;0.10;0.10;;;;;;;17.60;100.00;99025.97;4822136;29;20265;-80
2023/07/13 05:16:26;;;;;;;0.10;0.10;;;;;;;17.56;100.00;99030.75;4855231;29;20291;-81
2023/07/13 05:18:55;;;;;;;0.10;0.10;;;;;;;17.77;100.00;99027.94;4873769;29;20199;-80
2023/07/13 05:21:24;;;;;;;0.10;0.10;;;;;;;17.72;100.00;99025.66;4874937;29;20686;-81
2023/07/13 05:23:55;;;;;;;0.10;0.10;;;;;;;17.95;100.00;99028.84;4882419;29;20209;-80
2023/07/13 05:26:27;;;;;;;0.10;0.10;;;;;;;18.00;100.00;99029.22;4934977;29;20204;-81
2023/07/13 05:28:55;;;;;;;0.10;0.10;;;;;;;18.03;100.00;99034.28;4951948;29;20236;-80
2023/07/13 05:31:24;;;;;;;0.10;0.10;;;;;;;17.99;100.00;99032.91;4945511;29;20189;-81
2023/07/13 05:33:52;;;;;;;0.10;0.10;;;;;;;17.89;100.00;99034.78;4948520;29;20288;-81
2023/07/13 05:36:21;;;;;;;0.10;0.10;;;;;;;17.81;100.00;99037.34;4954992;28;20183;-80
2023/07/13 05:38:49;;;;;;;0.10;0.10;;;;;;;17.84;100.00;99044.25;4945525;28;20204;-80
2023/07/13 05:41:19;;;;;;;0.10;0.10;;;;;;;17.91;100.00;99037.31;4949256;29;20201;-80
2023/07/13 05:43:48;;;;;;;0.10;0.10;;;;;;;17.84;100.00;99031.69;4955125;29;20265;-80
2023/07/13 05:46:22;;;;;;;0.10;0.10;;;;;;;17.89;100.00;99045.50;4954980;29;20181;-81
2023/07/13 05:48:51;;;;;;;0.10;0.10;;;;;;;17.98;100.00;99038.41;4948978;29;20303;-81
2023/07/13 05:51:19;;;;;;;0.10;0.10;;;;;;;17.87;100.00;99036.78;4954855;29;20205;-80
2023/07/13 05:53:48;;;;;;;0.10;0.10;;;;;;;18.01;100.00;99047.00;4953145;28;20311;-81
2023/07/13 05:56:16;;;;;;;0.10;0.10;;;;;;;18.13;100.00;99053.00;4950145;29;20174;-81
2023/07/13 05:58:49;;;;;;;0.10;0.10;;;;;;;18.02;100.00;99042.47;4954650;29;20288;-80
2023/07/13 06:01:20;;;;;;;0.10;0.10;;;;;;;17.98;100.00;99041.09;4972643;29;20227;-79
2023/07/13 06:03:48;;;;;;;0.10;0.10;;;;;;;17.92;100.00;99041.66;4970225;29;20193;-80
2023/07/13 06:06:17;;;;;;;0.10;0.10;;;;;;;18.17;100.00;99045.53;4958969;28;20200;-80
2023/07/13 06:08:46;;;;;;;0.10;0.10;;;;;;;18.03;100.00;99047.69;4959499;28;20232;-80
2023/07/13 06:11:17;;;;;;;0.10;0.10;;;;;;;18.16;100.00;99049.19;4953236;29;20196;-81
2023/07/13 06:13:47;;;;;;;0.10;0.10;;;;;;;18.28;100.00;99062.25;4956153;28;20238;-80
2023/07/13 06:16:17;;;;;;;0.10;0.10;;;;;;;18.30;100.00;99059.41;4955008;28;20181;-80
2023/07/13 06:18:46;;;;;;;0.10;0.10;;;;;;;18.34;100.00;99052.75;4953730;29;20200;-80
2023/07/13 06:21:16;;;;;;;0.20;0.20;;;;;;;18.35;100.00;99054.44;4951065;28;20188;-80
2023/07/13 06:23:47;;;;;;;0.10;0.10;;;;;;;18.40;100.00;99046.78;4954130;29;20276;-81
2023/07/13 06:26:16;;;;;;;0.10;0.10;;;;;;;18.53;100.00;99059.84;4952467;29;20653;-80
2023/07/13 06:28:45;;;;;;;0.10;0.10;;;;;;;18.56;100.00;99068.44;4956843;28;20235;-80
2023/07/13 06:31:17;;;;;;;0.10;0.10;;;;;;;18.39;100.00;99068.41;4953372;29;20199;-80
2023/07/13 06:33:46;;;;;;;0.10;0.10;;;;;;;18.55;100.00;99066.75;4953980;28;20201;-80
2023/07/13 06:36:16;;;;;;;0.10;0.10;;;;;;;18.72;100.00;99075.84;4956638;28;20181;-80
2023/07/13 06:38:44;;;;;;;0.10;0.10;;;;;;;18.88;100.00;99076.00;4950730;29;20192;-80
2023/07/13 06:41:13;;;;;;;0.10;0.10;;;;;;;18.85;100.00;99084.38;4933346;29;20279;-80
2023/07/13 06:43:42;;;;;;;0.10;0.10;;;;;;;18.82;100.00;99073.09;4949288;29;20188;-80
2023/07/13 06:46:11;;;;;;;0.10;0.10;;;;;;;18.80;100.00;99073.22;4953765;28;20649;-80
2023/07/13 06:48:41;;;;;;;0.20;0.20;;;;;;;18.78;99.78;99080.59;4953041;28;20208;-80
2023/07/13 06:51:13;;;;;;;0.10;0.10;;;;;;;19.01;100.00;99075.63;4950300;29;20196;-80
2023/07/13 06:53:44;;;;;;;0.10;0.10;;;;;;;19.16;97.94;99078.59;4952988;28;20227;-81
2023/07/13 06:56:12;;;;;;;0.10;0.10;;;;;;;19.21;96.74;99075.47;4948042;29;20205;-82
2023/07/13 06:58:41;;;;;;;0.10;0.10;;;;;;;19.31;96.50;99071.69;4936839;29;20249;-80
2023/07/13 07:01:14;;;;;;;0.10;0.10;;;;;;;19.37;95.48;99076.41;4954278;28;20204;-80
2023/07/13 07:03:48;;;;;;;0.10;0.10;;;;;;;19.69;97.83;99077.69;4913175;29;20285;-81
2023/07/13 07:06:19;;;;;;;0.17;0.17;;;;;;;19.73;94.95;99087.13;4910854;29;20198;-80
2023/07/13 07:08:48;;;;;;;0.10;0.10;;;;;;;19.83;94.28;99087.84;4911092;29;20246;-81
2023/07/13 07:11:19;;;;;;;0.10;0.10;;;;;;;19.94;92.59;99082.22;4912246;29;20654;-80
2023/07/13 07:13:47;;;;;;;0.10;0.10;;;;;;;19.81;91.77;99083.66;4917677;28;20239;-81
2023/07/13 07:16:16;;;;;;;0.10;0.10;;;;;;;19.78;94.37;99086.63;4912891;29;20197;-80
2023/07/13 07:18:48;;;;;;;0.10;0.10;;;;;;;19.64;92.03;99088.91;4913911;28;20316;-80
2023/07/13 07:21:16;;;;;;;0.10;0.10;;;;;;;19.83;90.76;99087.00;4924524;28;20201;-80
2023/07/13 07:23:45;;;;;;;0.10;0.10;;;;;;;20.01;91.17;99088.63;4955777;28;20197;-80
2023/07/13 07:26:13;;;;;;;0.10;0.10;;;;;;;19.77;89.63;99096.53;4953126;29;20260;-80
2023/07/13 07:28:42;;;;;;;0.10;0.10;;;;;;;20.15;88.95;99094.41;4953630;28;20400;-80
2023/07/13 07:31:16;;;;;;;0.10;0.10;;;;;;;20.28;86.27;99097.50;4953544;28;20193;-80
2023/07/13 07:33:51;;;;;;;0.10;0.10;;;;;;;19.90;85.55;99083.53;4949006;29;20185;-80
2023/07/13 07:36:19;;;;;;;0.10;0.10;;;;;;;20.12;87.96;99094.75;4950364;29;20200;-80
2023/07/13 07:38:51;;;;;;;0.10;0.10;;;;;;;20.08;88.07;99088.00;4947450;29;20235;-80
2023/07/13 07:41:19;;;;;;;0.10;0.10;;;;;;;20.08;87.16;99083.47;4933409;29;20210;-80
2023/07/13 07:43:50;;;;;;;0.10;0.10;;;;;;;19.96;87.96;99079.34;4952941;29;20188;-80
2023/07/13 07:46:19;;;;;;;0.10;0.10;;;;;;;20.57;87.50;99089.06;4948863;29;20661;-80
2023/07/13 07:48:49;;;;;;;0.10;0.10;;;;;;;20.61;84.07;99094.97;4950529;29;20209;-81
2023/07/13 07:51:18;;;;;;;0.10;0.10;;;;;;;20.76;82.36;99080.72;4953007;28;20205;-80
2023/07/13 07:53:48;;;;;;;0.10;0.10;;;;;;;20.65;82.25;99094.47;4952559;28;20697;-80
2023/07/13 07:56:17;;;;;;;0.10;0.10;;;;;;;20.58;83.74;99086.22;4950545;29;20196;-80
2023/07/13 07:58:48;;;;;;;0.10;0.10;;;;;;;20.76;81.52;99090.66;4947731;29;20192;-80
2023/07/13 08:01:19;;;;;;;0.10;0.10;;;;;;;20.42;80.75;99094.19;4952050;28;20189;-79
2023/07/13 08:03:52;;;;;;;0.10;0.10;;;;;;;20.41;82.76;99095.19;4951406;29;20200;-79
2023/07/13 08:06:24;;;;;;;0.10;0.10;;;;;;;20.88;80.32;99096.56;4946962;29;20192;-79
2023/07/13 08:08:55;;;;;;;0.10;0.10;;;;;;;20.95;78.19;99101.13;4951757;29;20204;-79
2023/07/13 08:11:24;;;;;;;0.10;0.10;;;;;;;21.08;78.86;99089.84;4954469;28;20208;-79
2023/07/13 08:13:55;;;;;;;0.10;0.10;;;;;;;21.03;77.90;99094.88;4952412;28;20208;-80
2023/07/13 08:16:24;;;;;;;0.10;0.10;;;;;;;21.18;79.78;99101.31;4952579;29;20193;-80
2023/07/13 08:18:55;;;;;;;0.10;0.10;;;;;;;20.82;77.06;99093.50;5000884;28;20204;-80
2023/07/13 08:21:23;;;;;;;0.10;0.10;;;;;;;20.99;78.98;99097.06;4910044;29;20198;-79
2023/07/13 08:23:53;;;;;;;0.10;0.10;;;;;;;20.88;77.57;99100.09;4913117;29;20213;-79
2023/07/13 08:26:22;;;;;;;0.10;0.10;;;;;;;20.71;79.43;99101.03;4909818;29;20198;-79
2023/07/13 08:28:50;;;;;;;0.20;0.20;;;;;;;20.72;77.09;99100.03;4949666;29;20193;-79
2023/07/13 08:31:21;;;;;;;0.10;0.10;;;;;;;20.60;79.94;99098.66;4947946;29;20271;-80
2023/07/13 08:33:49;;;;;;;0.10;0.10;;;;;;;20.58;76.99;99098.84;4949080;29;20193;-80
2023/07/13 08:36:19;;;;;;;0.10;0.10;;;;;;;20.91;76.34;99098.91;4907958;29;20205;-79
2023/07/13 08:38:47;;;;;;;0.10;0.10;;;;;;;20.88;75.36;99104.63;4957436;28;20213;-80
2023/07/13 08:41:20;;;;;;;0.10;0.10;;;;;;;20.63;80.11;99103.72;5011312;28;20206;-79
2023/07/13 08:43:51;;;;;;;0.10;0.10;;;;;;;20.78;78.84;99096.69;5003766;28;20516;-80
2023/07/13 08:46:30;;;;;;;0.10;0.10;;;;;;;20.75;77.81;99099.69;4993063;28;20189;-80
2023/07/13 08:49:02;;;;;;;0.10;0.10;;;;;;;20.89;78.81;99103.63;4893494;29;20210;-80
2023/07/13 08:51:40;;;;;;;0.10;0.10;;;;;;;20.94;78.78;99112.03;4893389;29;20414;-79
2023/07/13 08:54:18;;;;;;;0.10;0.10;;;;;;;20.74;77.49;99108.78;4892362;29;20274;-78
2023/07/13 08:56:48;;;;;;;0.10;0.10;;;;;;;21.22;76.96;99116.09;4898408;28;20202;-80
2023/07/13 08:59:18;;;;;;;0.10;0.10;;;;;;;21.33;75.12;99112.31;4902272;28;20207;-80
2023/07/13 09:02:07;;;;;;;0.10;0.10;;;;;;;21.75;69.75;99101.31;4893367;29;20289;-80
2023/07/13 09:04:46;;;;;;;0.20;0.20;;;;;;;21.93;68.65;99095.72;4889136;29;20195;-80
2023/07/13 09:07:28;;;;;;;0.10;0.10;;;;;;;21.66;70.07;99105.03;4899082;29;20191;-79
2023/07/13 09:10:06;;;;;;;0.10;0.10;;;;;;;21.67;69.07;99101.31;4899827;28;20254;-80
2023/07/13 09:12:42;;;;;;;0.10;0.10;;;;;;;21.77;68.73;99093.91;4897124;29;20218;-80
2023/07/13 09:15:22;;;;;;;0.10;0.10;;;;;;;21.92;66.06;99100.28;4955020;29;20192;-79
2023/07/13 09:17:56;;;;;;;0.10;0.10;;;;;;;21.89;64.49;99097.06;4913001;29;20339;-79
2023/07/13 09:20:32;;;;;;;0.10;0.10;;;;;;;21.60;65.15;99106.53;4913786;29;20218;-80
2023/07/13 09:23:08;;;;;;;0.10;0.10;;;;;;;21.74;64.68;99102.34;4907273;29;20373;-79
2023/07/13 09:25:37;;;;;;;0.10;0.10;;;;;;;21.56;67.03;99101.69;4915243;29;20197;-81
2023/07/13 09:28:16;;;;;;;0.10;0.10;;;;;;;21.74;66.13;99093.41;4912569;29;20209;-80
2023/07/13 09:30:54;;;;;;;0.10;0.10;;;;;;;21.86;64.17;99095.56;4914917;29;20308;-81
2023/07/13 09:33:23;;;;;;;0.10;0.10;;;;;;;22.19;62.11;99090.94;4910937;29;20197;-80
2023/07/13 09:35:52;;;;;;;0.10;0.10;;;;;;;22.05;62.12;99090.78;4930216;29;20194;-80
2023/07/13 09:38:26;;;;;;;0.10;0.10;;;;;;;22.30;61.06;99099.69;4955017;28;20226;-79
2023/07/13 09:41:05;;;;;;;0.10;0.10;;;;;;;22.05;61.44;99096.19;4951954;29;20191;-79
2023/07/13 09:43:33;;;;;;;0.10;0.10;;;;;;;22.63;59.52;99087.72;4919486;29;20207;-79
2023/07/13 09:46:03;;;;;;;0.10;0.10;;;;;;;22.59;59.03;99085.56;4953417;29;20184;-80
2023/07/13 09:48:36;;;;;;;0.10;0.10;;;;;;;22.69;57.60;99094.28;4952532;29;20259;-80
2023/07/13 09:51:13;;;;;;;0.10;0.10;;;;;;;22.71;58.03;99092.25;4953854;28;20224;-80
2023/07/13 09:53:45;;;;;;;0.10;0.10;;;;;;;22.73;59.35;99093.72;4948187;28;20239;-81
2023/07/13 09:56:24;;;;;;;0.10;0.10;;;;;;;22.82;56.85;99084.56;4951461;29;20211;-80
2023/07/13 09:58:52;;;;;;;0.10;0.10;;;;;;;22.95;56.79;99088.56;4953206;28;20234;-80
2023/07/13 10:01:34;;;;;;;0.10;0.10;;;;;;;22.75;58.42;99094.41;4953795;29;20197;-80
2023/07/13 10:04:03;;;;;;;0.10;0.10;;;;;;;22.71;56.85;99101.19;4953208;28;20199;-80
2023/07/13 10:06:31;;;;;;;0.10;0.10;;;;;;;23.54;55.62;99083.38;4950266;29;20205;-80
2023/07/13 10:09:01;;;;;;;0.10;0.10;;;;;;;23.05;55.46;99089.16;4954450;29;20209;-81
2023/07/13 10:11:33;;;;;;;0.10;0.10;;;;;;;22.94;56.21;99081.47;4954933;28;20205;-80
2023/07/13 10:14:03;;;;;;;0.10;0.10;;;;;;;22.94;57.08;99090.44;4953496;29;20645;-79
2023/07/13 10:16:34;;;;;;;0.10;0.10;;;;;;;23.21;56.45;99088.22;4967923;29;20292;-79
2023/07/13 10:19:07;;;;;;;0.10;0.10;;;;;;;23.95;55.40;99097.38;4953710;29;20246;-79
2023/07/13 10:21:40;;;;;;;0.10;0.10;;;;;;;23.07;55.11;99088.00;4954494;29;20208;-80
2023/07/13 10:24:18;;;;;;;0.10;0.10;;;;;;;23.14;54.91;99094.34;4952417;28;20212;-79
2023/07/13 10:26:53;;;;;;;0.10;0.10;;;;;;;23.28;53.71;99091.88;4951573;29;20291;-80
2023/07/13 10:29:27;;;;;;;0.10;0.10;;;;;;;23.45;53.00;99096.16;4952433;29;20246;-80
2023/07/13 10:31:57;;;;;;;0.10;0.10;;;;;;;23.27;53.54;99085.66;4966210;28;20227;-80
2023/07/13 10:34:27;;;;;;;0.10;0.10;;;;;;;23.66;52.74;99076.53;4950907;29;20312;-80
2023/07/13 10:36:56;;;;;;;0.10;0.10;;;;;;;23.87;52.34;99090.19;4949873;29;20209;-80
2023/07/13 10:39:30;;;;;;;0.10;0.10;;;;;;;23.99;50.99;99090.56;4949016;29;20201;-79
2023/07/13 10:42:05;;;;;;;0.10;0.10;;;;;;;24.43;51.12;99090.59;4953536;28;20192;-81
2023/07/13 10:44:36;;;;;;;0.08;0.08;;;;;;;24.38;48.37;99089.47;4952162;29;20181;-79
2023/07/13 10:47:09;;;;;;;0.10;0.10;;;;;;;24.74;48.43;99103.88;4952340;28;20193;-80
2023/07/13 10:49:38;;;;;;;0.10;0.10;;;;;;;24.13;47.08;99100.56;4950083;29;20204;-80
2023/07/13 10:52:46;;;;;;;0.10;0.10;;;;;;;24.61;47.18;99090.19;4949249;29;20228;-80
2023/07/13 10:55:59;;;;;;;0.10;0.10;;;;;;;24.21;46.53;99100.44;4952332;29;20200;-80
2023/07/13 10:58:34;;;;;;;0.10;0.10;;;;;;;24.91;47.05;99101.78;4950403;28;20278;-80
2023/07/13 11:01:09;;;;;;;0.10;0.10;;;;;;;25.04;45.77;99101.13;4950975;29;20201;-79
2023/07/13 11:03:51;;;;;;;0.10;0.10;;;;;;;23.86;48.64;99109.31;4952103;29;20184;-80
2023/07/13 11:06:34;;;;;;;0.10;0.10;;;;;;;23.34;51.81;99120.88;4952271;29;20197;-79
2023/07/13 11:09:20;;;;;;;0.08;0.08;;;;;;;23.19;51.57;99101.09;4951176;29;20201;-81
2023/07/13 11:11:50;;;;;;;0.10;0.10;;;;;;;23.45;51.78;99100.69;4953158;28;20282;-79
2023/07/13 11:14:31;;;;;;;0.10;0.10;;;;;;;24.01;50.91;99104.75;4947540;29;20201;-80
2023/07/13 11:17:00;;;;;;;0.10;0.10;;;;;;;24.97;47.83;99094.75;4952789;29;20192;-80
2023/07/13 11:19:42;;;;;;;0.00;0.00;;;;;;;24.78;47.21;99098.91;4914728;29;20234;-80
2023/07/13 11:22:17;;;;;;;0.10;0.10;;;;;;;23.17;51.55;99095.03;4945484;29;20193;-79
2023/07/13 11:24:57;;;;;;;0.10;0.10;;;;;;;24.31;49.12;99100.19;4952981;29;20188;-79
2023/07/13 11:27:37;;;;;;;0.10;0.10;;;;;;;24.98;47.62;99091.84;4917129;29;20621;-80
2023/07/13 11:30:33;;;;;;;0.00;0.00;;;;;;;25.39;45.26;99097.53;4953399;28;20235;-80
2023/07/13 11:33:12;;;;;;;0.10;0.10;;;;;;;25.26;45.77;99085.69;4952851;28;20184;-80
2023/07/13 11:35:47;;;;;;;0.10;0.10;;;;;;;24.93;46.18;99093.47;4945812;28;20200;-80
2023/07/13 11:38:19;;;;;;;0.10;0.10;;;;;;;24.26;47.68;99083.66;4933386;28;20188;-80
2023/07/13 11:40:49;;;;;;;0.00;0.00;;;;;;;24.31;48.85;99089.38;4931426;29;20207;-79
2023/07/13 11:43:25;;;;;;;0.10;0.10;;;;;;;24.67;47.68;99089.41;4952177;29;20242;-80
2023/07/13 11:45:57;;;;;;;0.10;0.10;;;;;;;24.68;47.33;99092.97;4948818;29;20268;-80
2023/07/13 11:48:31;;;;;;;0.10;0.10;;;;;;;24.12;47.64;99095.31;4949460;29;20211;-80